Time;durP1;ratioP1;P1;durP2;ratioP2;P2;SDS_P1;SDS_P2;PMS_P1;PMS_P2;Temp;Humidity;BMP_temperature;BMP_pressure;BME280_temperature;BME280_humidity;BME280_pressure;Samples;Min_cycle;Max_cycle;Signal;HPM_P1;HPM_P2
2021/11/12 00:14:53;;;;;;;51.97;39.00;;;9.20;99.90;;;;;;5028396;28;20041;-67
2021/11/12 00:17:21;;;;;;;48.83;36.95;;;9.20;99.90;;;;;;5021590;28;20116;-67
2021/11/12 00:19:50;;;;;;;52.30;39.28;;;9.20;99.90;;;;;;5027232;28;20132;-67
2021/11/12 00:22:16;;;;;;;54.65;38.47;;;9.20;99.90;;;;;;5026176;28;20099;-67
2021/11/12 00:24:42;;;;;;;49.75;38.60;;;9.10;99.90;;;;;;5022351;28;20129;-67
2021/11/12 00:27:08;;;;;;;51.40;37.97;;;9.10;99.90;;;;;;5023917;28;20025;-67
2021/11/12 00:30:04;;;;;;;47.88;35.53;;;9.10;99.90;;;;;;5001004;28;20042;-67
2021/11/12 00:32:46;;;;;;;51.72;36.80;;;9.10;99.90;;;;;;5025787;28;20052;-67
2021/11/12 00:35:23;;;;;;;47.72;36.47;;;9.10;99.90;;;;;;5022461;28;20029;-67
2021/11/12 00:40:18;;;;;;;49.08;37.58;;;9.10;99.90;;;;;;5019919;28;20174;-67
2021/11/12 00:45:31;;;;;;;45.47;35.95;;;9.10;99.90;;;;;;5022212;28;20612;-67
2021/11/12 00:48:21;;;;;;;50.88;36.65;;;9.10;99.90;;;;;;5028672;28;20047;-67
2021/11/12 00:50:58;;;;;;;49.38;36.67;;;9.10;99.90;;;;;;5018196;28;20052;-67
2021/11/12 00:55:50;;;;;;;48.03;35.88;;;9.10;99.90;;;;;;5023292;28;20055;-67
2021/11/12 00:58:16;;;;;;;49.72;36.42;;;9.10;99.90;;;;;;5024703;28;20367;-67
2021/11/12 01:00:43;;;;;;;46.80;36.25;;;9.10;99.90;;;;;;5019794;28;20074;-67
2021/11/12 01:03:10;;;;;;;49.97;37.38;;;9.10;99.90;;;;;;5022976;28;20390;-67
2021/11/12 01:05:36;;;;;;;52.28;36.08;;;9.10;99.90;;;;;;5022373;28;20080;-67
2021/11/12 01:08:03;;;;;;;47.33;37.05;;;9.10;99.90;;;;;;5024040;28;20045;-67
2021/11/12 01:10:31;;;;;;;53.53;37.38;;;9.10;99.90;;;;;;5018155;28;20037;-67
2021/11/12 01:13:00;;;;;;;45.10;35.40;;;9.00;99.90;;;;;;5005960;28;20545;-67
2021/11/12 01:15:26;;;;;;;49.58;34.40;;;9.10;99.90;;;;;;4998288;28;20482;-67
2021/11/12 01:17:53;;;;;;;50.78;35.53;;;9.00;99.90;;;;;;5023996;28;20037;-67
2021/11/12 01:20:19;;;;;;;46.20;34.85;;;9.10;99.90;;;;;;5019901;28;20042;-67
2021/11/12 01:22:48;;;;;;;45.60;34.97;;;9.10;99.90;;;;;;5028312;28;20120;-67
2021/11/12 01:25:16;;;;;;;52.17;35.70;;;9.10;99.90;;;;;;5002098;28;20481;-67
2021/11/12 01:27:43;;;;;;;43.53;34.70;;;9.10;99.90;;;;;;5007159;28;20042;-67
2021/11/12 01:30:11;;;;;;;50.95;35.55;;;9.10;99.90;;;;;;5003668;28;21444;-67
2021/11/12 01:32:38;;;;;;;44.90;35.10;;;9.10;99.90;;;;;;5005852;28;20066;-67
2021/11/12 01:35:05;;;;;;;45.13;34.17;;;9.10;99.90;;;;;;5027002;28;20076;-67
2021/11/12 01:37:33;;;;;;;45.65;36.00;;;9.10;99.90;;;;;;5001991;28;20370;-67
2021/11/12 01:40:04;;;;;;;46.17;36.42;;;9.00;99.90;;;;;;5024683;28;20060;-67
2021/11/12 01:42:57;;;;;;;48.08;35.95;;;9.10;99.90;;;;;;5016008;28;20058;-67
2021/11/12 01:51:22;;;;;;;46.28;33.42;;;9.00;99.90;;;;;;5004399;28;20054;-67
2021/11/12 01:54:07;;;;;;;49.05;35.58;;;9.00;99.90;;;;;;5024447;28;20044;-67
2021/11/12 01:57:00;;;;;;;46.60;34.38;;;9.00;99.90;;;;;;5017965;28;20099;-67
2021/11/12 01:59:26;;;;;;;41.97;33.75;;;9.00;99.90;;;;;;5026989;28;20420;-67
2021/11/12 02:01:57;;;;;;;47.75;35.20;;;9.00;99.90;;;;;;5003700;28;20064;-67
2021/11/12 02:04:28;;;;;;;50.72;35.20;;;9.00;99.90;;;;;;5025553;28;20119;-67
2021/11/12 02:06:56;;;;;;;49.50;35.22;;;9.00;99.90;;;;;;5018099;28;20041;-67
2021/11/12 02:09:22;;;;;;;46.70;34.55;;;9.00;99.90;;;;;;5024925;28;20034;-67
2021/11/12 02:12:06;;;;;;;46.38;34.28;;;9.00;99.90;;;;;;4999942;28;20035;-67
2021/11/12 02:14:33;;;;;;;42.43;33.47;;;9.00;99.90;;;;;;5003728;28;20498;-67
2021/11/12 02:17:08;;;;;;;48.33;35.45;;;9.00;99.90;;;;;;5023799;28;20292;-67
2021/11/12 02:19:36;;;;;;;43.83;32.80;;;9.00;99.90;;;;;;5007713;28;20053;-67
2021/11/12 02:22:11;;;;;;;46.97;33.20;;;9.00;99.90;;;;;;5021557;28;20049;-67
2021/11/12 02:24:41;;;;;;;45.15;34.15;;;9.00;99.90;;;;;;5006461;28;20038;-67
2021/11/12 02:27:11;;;;;;;46.25;33.05;;;9.00;99.90;;;;;;5005896;28;20037;-67
2021/11/12 02:29:41;;;;;;;48.42;33.45;;;9.00;99.90;;;;;;5017044;28;20091;-67
2021/11/12 02:32:20;;;;;;;50.28;34.83;;;9.00;99.90;;;;;;5006681;28;20045;-67
2021/11/12 02:34:50;;;;;;;44.70;33.17;;;9.00;99.90;;;;;;5002691;28;20050;-67
2021/11/12 02:37:16;;;;;;;43.75;33.67;;;9.00;99.90;;;;;;5024633;28;20037;-67
2021/11/12 02:39:42;;;;;;;48.83;34.53;;;9.00;99.90;;;;;;4996030;28;20176;-67
2021/11/12 02:42:08;;;;;;;48.90;34.97;;;9.00;99.90;;;;;;5003006;28;20060;-67
2021/11/12 02:44:35;;;;;;;48.33;35.55;;;8.90;99.90;;;;;;5020567;28;20084;-67
2021/11/12 02:47:02;;;;;;;44.92;34.08;;;8.90;99.90;;;;;;5024790;28;20362;-67
2021/11/12 02:49:28;;;;;;;46.60;33.95;;;8.90;99.90;;;;;;5000913;28;20072;-67
2021/11/12 02:51:55;;;;;;;44.42;33.83;;;8.90;99.90;;;;;;5029600;28;20530;-67
2021/11/12 02:54:22;;;;;;;49.45;34.65;;;8.90;99.90;;;;;;5002888;28;20045;-67
2021/11/12 02:56:51;;;;;;;46.80;34.80;;;8.90;99.90;;;;;;5004029;28;20487;-67
2021/11/12 02:59:17;;;;;;;51.28;35.33;;;8.90;99.90;;;;;;5022038;28;20042;-67
2021/11/12 03:01:46;;;;;;;43.55;33.80;;;8.90;99.90;;;;;;5029740;28;20201;-67
2021/11/12 03:04:15;;;;;;;46.65;33.38;;;8.90;99.90;;;;;;5021593;28;20069;-67
2021/11/12 03:06:41;;;;;;;44.47;33.92;;;8.90;99.90;;;;;;5009326;28;20044;-67
2021/11/12 03:09:10;;;;;;;42.70;33.30;;;8.90;99.90;;;;;;5023657;28;20037;-67
2021/11/12 03:11:37;;;;;;;48.15;34.08;;;8.90;99.90;;;;;;5029114;28;20044;-67
2021/11/12 03:14:04;;;;;;;47.47;34.80;;;8.90;99.90;;;;;;5025927;28;20092;-67
2021/11/12 03:16:31;;;;;;;48.22;34.00;;;8.90;99.90;;;;;;5022483;28;20030;-67
2021/11/12 03:18:59;;;;;;;49.95;35.08;;;8.90;99.90;;;;;;5030447;28;20044;-67
2021/11/12 03:21:25;;;;;;;47.85;34.75;;;8.90;99.90;;;;;;5023653;28;20072;-67
2021/11/12 03:23:57;;;;;;;45.63;34.92;;;8.90;99.90;;;;;;5025542;28;20037;-67
2021/11/12 03:26:30;;;;;;;43.90;34.53;;;8.90;99.90;;;;;;5004772;28;20060;-67
2021/11/12 04:01:48;;;;;;;42.97;34.28;;;8.60;99.90;;;;;;5017715;28;20096;-67
2021/11/12 04:18:10;;;;;;;51.35;36.63;;;8.60;99.90;;;;;;5023900;28;20049;-67
2021/11/12 05:50:16;;;;;;;52.23;38.17;;;8.30;99.90;;;;;;5004494;28;20361;-67
2021/11/12 05:55:26;;;;;;;52.38;39.17;;;8.30;99.90;;;;;;5015926;28;20041;-67
2021/11/12 05:57:52;;;;;;;54.03;37.20;;;8.30;99.90;;;;;;5026382;28;20050;-67
2021/11/12 06:00:19;;;;;;;54.58;39.35;;;8.30;99.90;;;;;;5025852;28;20046;-67
2021/11/12 06:02:46;;;;;;;53.28;38.00;;;8.40;99.90;;;;;;5019504;28;20038;-67
2021/11/12 06:05:12;;;;;;;57.13;38.05;;;8.40;99.90;;;;;;5026009;28;20044;-67
2021/11/12 06:07:38;;;;;;;50.75;37.33;;;8.40;99.90;;;;;;5001548;28;20157;-67
2021/11/12 06:10:05;;;;;;;58.05;39.50;;;8.40;99.90;;;;;;5025436;28;20127;-67
2021/11/12 06:12:31;;;;;;;53.80;37.60;;;8.40;99.90;;;;;;5016814;28;20133;-67
2021/11/12 06:14:58;;;;;;;55.20;38.60;;;8.30;99.90;;;;;;5008811;28;20056;-67
2021/11/12 06:17:23;;;;;;;49.63;36.25;;;8.40;99.90;;;;;;5004318;28;20053;-67
2021/11/12 06:19:49;;;;;;;52.92;37.25;;;8.30;99.90;;;;;;4999771;28;20071;-67
2021/11/12 06:22:15;;;;;;;58.03;38.60;;;8.30;99.90;;;;;;5003540;28;20038;-67
2021/11/12 06:24:41;;;;;;;50.75;37.53;;;8.30;99.90;;;;;;5029536;28;20038;-67
2021/11/12 06:27:07;;;;;;;53.35;36.92;;;8.30;99.90;;;;;;5023394;28;20099;-67
2021/11/12 06:29:34;;;;;;;51.05;35.47;;;8.30;99.90;;;;;;5008650;28;20116;-67
2021/11/12 06:32:01;;;;;;;50.15;34.33;;;8.30;99.90;;;;;;5004662;28;20124;-67
2021/11/12 06:34:28;;;;;;;54.60;35.47;;;8.30;99.90;;;;;;5031913;28;20037;-67
2021/11/12 06:36:54;;;;;;;49.47;33.40;;;8.30;99.90;;;;;;5027484;28;20033;-67
2021/11/12 06:39:20;;;;;;;54.47;35.03;;;8.30;99.90;;;;;;5025372;28;20569;-67
2021/11/12 06:49:39;;;;;;;51.22;32.90;;;8.30;99.90;;;;;;5024497;28;20135;-67
2021/11/12 06:52:05;;;;;;;43.75;33.67;;;8.30;99.90;;;;;;5024268;28;20041;-67
2021/11/12 06:54:32;;;;;;;50.08;32.90;;;8.30;99.90;;;;;;5007633;28;20161;-67
2021/11/12 06:56:58;;;;;;;46.45;33.55;;;8.30;99.90;;;;;;5026057;28;20041;-66
2021/11/12 06:59:25;;;;;;;46.28;31.83;;;8.40;99.90;;;;;;5025265;28;20096;-67
2021/11/12 07:01:52;;;;;;;40.97;29.48;;;8.30;99.90;;;;;;5029921;28;20095;-66
2021/11/12 07:04:18;;;;;;;41.00;29.63;;;8.30;99.90;;;;;;5019032;28;20310;-66
2021/11/12 07:06:44;;;;;;;40.17;28.50;;;8.30;99.90;;;;;;5009915;28;20046;-67
2021/11/12 07:09:10;;;;;;;41.38;27.17;;;8.30;99.90;;;;;;5026365;28;20038;-66
2021/11/12 07:11:36;;;;;;;36.88;25.35;;;8.30;99.90;;;;;;5028765;28;20092;-66
2021/11/12 07:14:06;;;;;;;35.85;26.42;;;8.30;99.90;;;;;;5004026;28;20115;-66
2021/11/12 07:16:32;;;;;;;34.03;25.35;;;8.30;99.90;;;;;;5008578;28;20053;-66
2021/11/12 07:18:59;;;;;;;31.85;24.13;;;8.30;99.90;;;;;;5025062;28;20421;-67
2021/11/12 07:21:26;;;;;;;35.92;24.95;;;8.30;99.90;;;;;;5030792;28;20358;-66
2021/11/12 07:23:54;;;;;;;34.42;24.13;;;8.20;99.90;;;;;;5022862;28;20106;-66
2021/11/12 07:26:20;;;;;;;37.10;23.98;;;8.30;99.90;;;;;;5029526;28;20700;-66
2021/11/12 07:28:48;;;;;;;34.63;24.52;;;8.30;99.90;;;;;;5011695;28;20128;-66
2021/11/12 07:31:16;;;;;;;34.80;24.15;;;8.20;99.90;;;;;;5016300;28;20045;-66
2021/11/12 07:33:42;;;;;;;32.35;22.83;;;8.20;99.90;;;;;;5027526;28;20453;-66
2021/11/12 07:36:24;;;;;;;35.95;24.15;;;8.20;99.90;;;;;;5024151;28;20236;-66
2021/11/12 07:38:55;;;;;;;36.97;23.40;;;8.20;99.90;;;;;;5011835;28;20079;-66
2021/11/12 07:41:55;;;;;;;31.83;22.35;;;8.10;99.90;;;;;;5002167;28;20115;-66
2021/11/12 07:47:25;;;;;;;30.85;21.25;;;8.10;99.90;;;;;;5014577;28;20060;-66
2021/11/12 07:49:54;;;;;;;31.60;21.55;;;8.10;99.90;;;;;;5023974;28;20033;-66
2021/11/12 07:52:22;;;;;;;30.65;21.33;;;8.00;99.90;;;;;;5027621;28;20057;-66
2021/11/12 07:54:49;;;;;;;29.95;20.67;;;8.00;99.90;;;;;;5027492;28;20038;-66
2021/11/12 07:57:15;;;;;;;29.88;21.60;;;8.10;99.90;;;;;;5022807;28;20059;-66
2021/11/12 07:59:41;;;;;;;29.50;21.17;;;8.10;99.90;;;;;;5030081;28;20045;-65
2021/11/12 08:02:08;;;;;;;31.33;20.70;;;8.00;99.90;;;;;;5022554;28;20037;-65
2021/11/12 08:04:38;;;;;;;28.45;19.98;;;8.00;99.90;;;;;;4992330;28;20046;-65
2021/11/12 08:07:03;;;;;;;31.63;21.08;;;8.00;99.90;;;;;;4998963;28;20452;-65
2021/11/12 08:09:38;;;;;;;34.05;22.20;;;8.10;99.90;;;;;;5020737;28;20025;-65
2021/11/12 08:15:00;;;;;;;28.65;20.35;;;8.10;99.90;;;;;;5003552;28;19921;-66
2021/11/12 08:17:43;;;;;;;28.85;20.55;;;8.30;99.90;;;;;;5023701;28;20049;-66
2021/11/12 08:32:56;;;;;;;23.23;18.75;;;10.80;99.90;;;;;;5022243;28;20107;-66
2021/11/12 08:43:04;;;;;;;24.80;18.48;;;12.30;99.90;;;;;;5019688;28;20037;-66
2021/11/12 08:45:35;;;;;;;27.08;19.38;;;12.60;99.90;;;;;;5027281;28;20048;-66
2021/11/12 08:48:06;;;;;;;24.33;19.70;;;12.70;99.90;;;;;;5006504;28;20041;-66
2021/11/12 08:50:33;;;;;;;22.85;18.48;;;12.90;99.90;;;;;;5004428;28;20447;-66
2021/11/12 08:53:07;;;;;;;24.08;19.67;;;13.10;98.60;;;;;;5020156;28;20095;-66
2021/11/12 08:55:35;;;;;;;23.67;17.83;;;13.10;97.30;;;;;;5015737;28;20037;-66
2021/11/12 08:58:02;;;;;;;23.55;19.13;;;13.10;97.30;;;;;;5017042;28;20140;-66
2021/11/12 09:00:29;;;;;;;25.77;19.02;;;13.20;96.80;;;;;;5003030;28;20050;-66
2021/11/12 09:02:56;;;;;;;20.98;18.00;;;13.40;96.30;;;;;;5019895;28;20068;-66
2021/11/12 09:05:23;;;;;;;24.13;18.10;;;13.60;95.80;;;;;;5024953;28;20045;-66
2021/11/12 09:07:51;;;;;;;23.73;18.50;;;13.70;95.10;;;;;;5016427;28;20049;-66
2021/11/12 09:10:18;;;;;;;23.77;18.13;;;13.80;94.50;;;;;;5023618;28;20367;-66
2021/11/12 09:12:49;;;;;;;26.10;18.65;;;13.80;93.70;;;;;;5016861;28;20103;-66
2021/11/12 09:15:27;;;;;;;20.55;16.98;;;13.90;93.40;;;;;;4998727;28;20054;-66
2021/11/12 09:17:53;;;;;;;24.75;18.50;;;13.90;92.80;;;;;;5023688;28;20132;-66
2021/11/12 09:20:20;;;;;;;23.83;18.85;;;13.70;92.30;;;;;;5019715;28;20049;-66
2021/11/12 09:22:46;;;;;;;22.25;19.10;;;13.30;92.60;;;;;;5017541;28;20033;-66
2021/11/12 09:25:13;;;;;;;25.25;19.75;;;12.60;92.90;;;;;;5018451;28;20042;-66
2021/11/12 09:27:39;;;;;;;24.50;18.10;;;12.10;94.40;;;;;;5016399;28;20036;-66
2021/11/12 09:30:11;;;;;;;22.27;18.38;;;12.30;95.10;;;;;;5015234;28;20034;-66
2021/11/12 09:32:37;;;;;;;21.95;18.40;;;12.70;94.70;;;;;;5024622;28;20037;-66
2021/11/12 09:35:04;;;;;;;22.70;19.02;;;13.20;94.10;;;;;;5024350;28;20467;-66
2021/11/12 09:37:30;;;;;;;24.48;16.85;;;13.70;94.00;;;;;;5023900;28;20110;-66
2021/11/12 09:39:57;;;;;;;22.05;17.45;;;14.10;92.60;;;;;;5015575;28;20053;-66
2021/11/12 09:42:31;;;;;;;20.30;17.25;;;14.40;92.00;;;;;;5025803;28;20048;-66
2021/11/12 09:44:58;;;;;;;21.50;16.98;;;14.70;91.40;;;;;;5017506;28;20045;-66
2021/11/12 09:47:25;;;;;;;19.67;16.85;;;14.80;91.20;;;;;;5028248;28;20068;-66
2021/11/12 09:49:56;;;;;;;20.05;16.02;;;15.00;91.00;;;;;;5000423;28;20041;-66
2021/11/12 09:52:24;;;;;;;23.20;17.10;;;15.10;90.60;;;;;;5024124;28;20175;-66
2021/11/12 09:54:51;;;;;;;20.80;18.08;;;15.20;89.60;;;;;;5003597;28;20498;-66
2021/11/12 09:57:18;;;;;;;24.42;18.95;;;14.90;90.20;;;;;;5025046;28;20605;-66
2021/11/12 09:59:57;;;;;;;22.55;16.95;;;14.40;90.70;;;;;;5019234;28;20493;-66
2021/11/12 10:02:23;;;;;;;21.45;17.42;;;13.80;90.10;;;;;;5008737;28;20079;-66
2021/11/12 10:04:48;;;;;;;21.75;18.58;;;13.20;91.50;;;;;;5026244;28;20072;-66
2021/11/12 10:07:16;;;;;;;22.65;18.15;;;12.70;92.50;;;;;;5000427;28;20042;-66
2021/11/12 10:09:44;;;;;;;20.88;17.23;;;12.30;93.10;;;;;;5023482;28;20034;-66
2021/11/12 10:12:11;;;;;;;23.48;17.48;;;11.90;93.80;;;;;;5019577;28;20045;-66
2021/11/12 10:14:51;;;;;;;21.63;16.92;;;11.60;94.40;;;;;;5025483;28;20064;-66
2021/11/12 10:17:19;;;;;;;22.88;15.88;;;11.40;94.60;;;;;;4999451;28;20060;-66
2021/11/12 10:19:52;;;;;;;22.10;15.68;;;11.20;95.10;;;;;;5025124;28;20123;-66
2021/11/12 10:22:28;;;;;;;22.67;16.83;;;11.10;95.10;;;;;;5023413;28;20054;-66
2021/11/12 10:24:54;;;;;;;21.52;16.98;;;10.90;95.40;;;;;;5028918;28;20088;-66
2021/11/12 10:27:24;;;;;;;19.17;17.00;;;10.70;96.20;;;;;;5017299;28;20041;-66
2021/11/12 10:30:07;;;;;;;20.85;18.20;;;10.70;96.70;;;;;;5007666;28;20732;-66
2021/11/12 10:32:34;;;;;;;24.27;17.73;;;10.60;97.30;;;;;;5018779;28;20401;-66
2021/11/12 10:35:08;;;;;;;23.42;17.83;;;10.60;97.50;;;;;;5028705;28;20038;-66
2021/11/12 10:37:37;;;;;;;21.48;17.15;;;10.60;97.70;;;;;;5003220;28;20145;-66
2021/11/12 10:40:06;;;;;;;22.85;16.75;;;10.60;98.00;;;;;;5005173;28;20057;-66
2021/11/12 10:42:38;;;;;;;20.50;17.98;;;10.60;98.30;;;;;;5002436;28;20089;-66
2021/11/12 10:45:07;;;;;;;23.65;17.48;;;10.60;98.20;;;;;;5028159;28;20049;-66
2021/11/12 10:47:34;;;;;;;22.13;16.90;;;10.60;98.20;;;;;;5021179;28;20072;-66
2021/11/12 10:50:03;;;;;;;23.00;17.80;;;10.50;98.20;;;;;;5025732;28;20037;-66
2021/11/12 10:52:30;;;;;;;22.63;19.25;;;10.50;98.00;;;;;;5015280;28;20086;-66
2021/11/12 10:55:14;;;;;;;26.83;19.27;;;10.40;98.20;;;;;;4999902;28;20068;-67
2021/11/12 10:57:55;;;;;;;24.42;18.45;;;10.30;98.50;;;;;;5017979;28;20111;-67
2021/11/12 11:00:26;;;;;;;24.95;19.05;;;10.30;98.80;;;;;;5026134;28;20088;-67
2021/11/12 11:03:01;;;;;;;27.42;20.40;;;10.20;98.70;;;;;;5022931;28;20498;-67
2021/11/12 11:05:43;;;;;;;28.50;20.40;;;10.20;98.80;;;;;;5025254;28;20103;-67
2021/11/12 11:08:21;;;;;;;28.10;20.55;;;10.20;98.70;;;;;;5018913;28;20049;-67
2021/11/12 11:11:05;;;;;;;26.60;20.10;;;10.30;98.70;;;;;;5005425;28;20195;-67
2021/11/12 11:13:40;;;;;;;29.92;21.38;;;10.30;98.40;;;;;;5006072;28;20085;-66
2021/11/12 11:16:10;;;;;;;29.30;21.23;;;10.20;97.80;;;;;;5022889;28;20061;-66
2021/11/12 11:18:39;;;;;;;29.17;22.42;;;10.20;97.80;;;;;;5023535;28;20034;-67
2021/11/12 11:23:57;;;;;;;32.63;23.27;;;10.20;97.70;;;;;;5024388;28;20045;-66
2021/11/12 11:26:44;;;;;;;29.63;22.15;;;10.20;97.90;;;;;;4999248;28;20053;-66
2021/11/12 11:29:22;;;;;;;28.85;22.58;;;10.20;97.80;;;;;;5023694;28;20106;-66
2021/11/12 11:31:50;;;;;;;29.63;22.70;;;10.20;97.70;;;;;;5031215;28;20045;-66
2021/11/12 11:34:18;;;;;;;27.05;21.98;;;10.20;97.60;;;;;;5004972;28;20068;-66
2021/11/12 11:36:45;;;;;;;27.75;22.45;;;10.20;97.30;;;;;;5028481;28;20116;-66
2021/11/12 11:39:13;;;;;;;28.15;22.98;;;10.20;97.60;;;;;;5024383;28;20058;-67
2021/11/12 11:41:43;;;;;;;32.30;23.23;;;10.20;97.60;;;;;;5006666;28;20052;-66
2021/11/12 11:44:13;;;;;;;28.88;23.13;;;10.20;97.50;;;;;;5018855;28;20041;-66
2021/11/12 11:46:42;;;;;;;30.40;22.25;;;10.20;97.80;;;;;;5032243;28;20060;-66
2021/11/12 11:49:13;;;;;;;29.98;22.77;;;10.20;98.00;;;;;;5001514;28;20548;-66
2021/11/12 11:51:50;;;;;;;28.58;23.50;;;10.30;97.80;;;;;;5007922;28;20216;-66
2021/11/12 11:54:18;;;;;;;30.17;23.70;;;10.20;98.00;;;;;;5022044;28;20069;-66
2021/11/12 11:56:47;;;;;;;29.35;22.83;;;10.30;98.00;;;;;;5027848;28;20606;-66
2021/11/12 11:59:28;;;;;;;30.75;23.02;;;10.20;97.80;;;;;;5007715;28;20247;-66
2021/11/12 12:01:59;;;;;;;31.85;25.05;;;10.30;97.80;;;;;;5026926;28;20049;-66
2021/11/12 12:04:36;;;;;;;28.92;24.75;;;10.30;97.80;;;;;;5027380;28;20037;-66
2021/11/12 12:07:01;;;;;;;32.78;24.75;;;10.30;97.40;;;;;;5031049;28;20034;-66
2021/11/12 12:09:49;;;;;;;31.58;25.17;;;10.20;97.80;;;;;;5029431;28;20033;-66
2021/11/12 12:12:35;;;;;;;31.98;25.75;;;10.20;97.70;;;;;;5026300;28;20397;-66
2021/11/12 12:15:03;;;;;;;30.75;24.80;;;10.20;98.00;;;;;;5024132;28;20498;-66
2021/11/12 12:17:32;;;;;;;32.58;25.58;;;10.20;98.10;;;;;;4989960;28;20103;-66
2021/11/12 13:22:50;;;;;;;53.83;37.78;;;8.90;99.50;;;;;;5003137;28;20057;-65
2021/11/12 13:25:35;;;;;;;54.03;39.28;;;8.90;99.70;;;;;;5023709;28;20087;-65
2021/11/12 13:28:22;;;;;;;53.55;37.63;;;8.80;99.70;;;;;;5021427;28;20045;-65
2021/11/12 13:31:20;;;;;;;52.95;38.65;;;8.70;99.90;;;;;;5023675;28;20474;-65
2021/11/12 13:33:51;;;;;;;51.47;38.83;;;8.60;99.90;;;;;;5009728;28;20057;-66
2021/11/12 13:36:30;;;;;;;53.33;39.92;;;8.60;99.90;;;;;;5022452;28;20034;-65
2021/11/12 13:39:03;;;;;;;57.40;39.35;;;8.50;99.90;;;;;;5019945;28;20041;-65
2021/11/12 13:41:33;;;;;;;52.67;38.58;;;8.50;99.90;;;;;;5023144;28;20386;-65
2021/11/12 13:44:08;;;;;;;52.58;39.13;;;8.50;99.90;;;;;;5023860;28;20516;-65
2021/11/12 13:46:44;;;;;;;52.97;39.17;;;8.40;99.90;;;;;;5023367;28;20095;-65
2021/11/12 13:49:10;;;;;;;52.47;39.53;;;8.40;99.90;;;;;;5017995;28;20033;-65
2021/11/12 13:51:36;;;;;;;55.40;40.58;;;8.30;99.90;;;;;;5008894;28;20042;-65
2021/11/12 13:54:04;;;;;;;53.10;40.15;;;8.30;99.90;;;;;;5021811;28;20045;-65
2021/11/12 13:56:35;;;;;;;56.88;40.72;;;8.30;99.90;;;;;;5008226;28;20063;-65
2021/11/12 13:59:16;;;;;;;55.63;40.78;;;8.20;99.90;;;;;;5019706;28;20045;-66
2021/11/12 14:01:41;;;;;;;56.58;40.42;;;8.10;99.90;;;;;;5021094;28;20042;-65
2021/11/12 14:04:25;;;;;;;57.75;41.30;;;8.10;99.90;;;;;;5028957;28;20125;-66
2021/11/12 14:06:53;;;;;;;56.50;40.53;;;8.00;99.90;;;;;;5006870;28;20125;-66
2021/11/12 14:09:20;;;;;;;57.85;42.13;;;8.00;99.90;;;;;;5020835;28;20390;-66
2021/11/12 14:11:46;;;;;;;60.38;43.38;;;8.00;99.90;;;;;;5022196;28;20421;-66
2021/11/12 14:14:22;;;;;;;61.80;44.15;;;7.90;99.90;;;;;;5024032;28;20041;-66
2021/11/12 14:16:52;;;;;;;60.40;44.05;;;7.90;99.90;;;;;;5018978;28;20088;-66
2021/11/12 14:19:50;;;;;;;60.15;43.92;;;7.90;99.90;;;;;;5026111;28;20038;-66
2021/11/12 14:24:54;;;;;;;57.85;43.83;;;7.80;99.90;;;;;;5028553;28;20049;-66
2021/11/12 14:33:02;;;;;;;54.53;41.58;;;7.70;99.90;;;;;;5020140;28;20170;-65
2021/11/12 14:46:35;;;;;;;61.28;43.72;;;7.50;99.90;;;;;;5019694;28;20402;-66
2021/11/12 14:54:42;;;;;;;63.88;46.13;;;7.50;99.90;;;;;;5026095;28;20044;-66
2021/11/12 14:59:55;;;;;;;60.13;44.47;;;7.40;99.90;;;;;;5025844;28;19933;-66
2021/11/12 15:02:22;;;;;;;65.50;44.85;;;7.40;99.90;;;;;;5006535;28;20128;-66
2021/11/12 15:04:48;;;;;;;63.63;47.03;;;7.40;99.90;;;;;;5025069;28;20212;-66
2021/11/12 15:07:20;;;;;;;65.32;46.50;;;7.30;99.90;;;;;;5021320;28;20033;-66
2021/11/12 15:09:48;;;;;;;64.10;45.80;;;7.40;99.90;;;;;;5031679;28;20422;-66
2021/11/12 15:12:14;;;;;;;63.72;46.78;;;7.30;99.90;;;;;;5002909;28;20037;-66
2021/11/12 15:14:46;;;;;;;68.22;48.67;;;7.30;99.90;;;;;;5027814;28;20041;-66
2021/11/12 15:17:12;;;;;;;68.15;47.47;;;7.20;99.90;;;;;;5024623;28;20537;-66
2021/11/12 15:19:41;;;;;;;62.42;45.53;;;7.30;99.90;;;;;;5007610;28;20053;-66
2021/11/12 15:32:50;;;;;;;64.75;47.30;;;7.20;99.90;;;;;;5022798;28;20539;-66
2021/11/12 15:35:23;;;;;;;65.57;45.20;;;7.10;99.90;;;;;;5029742;28;20052;-66
2021/11/12 15:37:57;;;;;;;65.20;46.40;;;7.10;99.90;;;;;;5019240;28;20597;-66
2021/11/12 15:53:22;;;;;;;65.18;46.55;;;7.10;99.90;;;;;;5028531;28;20405;-66
2021/11/12 15:55:59;;;;;;;66.72;47.70;;;7.00;99.90;;;;;;5025042;28;20038;-66
2021/11/12 16:01:23;;;;;;;61.70;44.97;;;7.00;99.90;;;;;;5024084;28;20045;-66
2021/11/12 16:14:15;;;;;;;62.33;46.90;;;6.90;99.90;;;;;;5028450;28;20417;-66
2021/11/12 16:19:38;;;;;;;67.05;45.60;;;6.90;99.90;;;;;;5028954;28;20571;-66
2021/11/12 16:27:01;;;;;;;59.33;42.90;;;6.90;99.90;;;;;;5022332;28;20041;-66
2021/11/12 16:32:36;;;;;;;57.75;42.05;;;6.90;99.90;;;;;;4975901;28;20078;-66
2021/11/12 16:35:03;;;;;;;59.00;42.15;;;6.80;99.90;;;;;;5011918;28;20079;-66
2021/11/12 16:37:31;;;;;;;59.85;42.05;;;6.90;99.90;;;;;;4999124;28;20048;-66
2021/11/12 16:40:01;;;;;;;61.60;43.28;;;6.90;99.90;;;;;;5026833;28;20446;-66
2021/11/12 16:45:37;;;;;;;59.28;41.83;;;6.90;99.90;;;;;;5023267;28;20436;-66
2021/11/12 16:48:14;;;;;;;55.55;40.65;;;6.90;99.90;;;;;;5027831;28;20450;-65
2021/11/12 16:51:07;;;;;;;58.22;39.88;;;6.90;99.90;;;;;;5022575;28;20037;-65
2021/11/12 16:53:52;;;;;;;55.60;40.53;;;6.90;99.90;;;;;;5024979;28;20034;-65
2021/11/12 16:59:40;;;;;;;48.42;36.53;;;6.90;99.90;;;;;;4948585;28;20082;-65
2021/11/12 17:05:00;;;;;;;51.03;38.05;;;7.00;99.90;;;;;;4998293;28;20434;-66
2021/11/12 17:12:32;;;;;;;49.70;34.97;;;7.00;99.90;;;;;;5020072;28;20046;-66
2021/11/12 17:45:05;;;;;;;38.97;29.90;;;7.10;99.90;;;;;;5015348;28;20460;-66
2021/11/12 17:47:33;;;;;;;40.40;29.88;;;7.10;99.90;;;;;;5022353;28;20326;-66
2021/11/12 17:50:19;;;;;;;36.45;27.52;;;7.10;99.90;;;;;;5020841;28;20045;-66
2021/11/12 18:03:30;;;;;;;36.42;26.45;;;7.10;99.90;;;;;;5017098;28;20061;-66
2021/11/12 18:06:31;;;;;;;35.40;26.85;;;7.10;99.90;;;;;;5025810;28;20038;-66
2021/11/12 18:09:14;;;;;;;31.55;25.20;;;7.10;99.90;;;;;;5011963;28;20081;-67
2021/11/12 18:20:32;;;;;;;34.72;25.35;;;7.10;99.90;;;;;;5016895;28;20045;-67
2021/11/12 21:48:37;;;;;;;40.03;24.27;;;7.70;99.90;;;;;;5020043;28;20045;-65
2021/11/12 21:51:04;;;;;;;33.10;25.05;;;7.80;99.90;;;;;;5024583;28;20150;-65
2021/11/12 21:53:31;;;;;;;33.85;23.65;;;7.80;99.90;;;;;;4999128;28;20041;-66
2021/11/12 21:55:59;;;;;;;32.20;24.15;;;7.80;99.90;;;;;;5026158;28;20393;-65
2021/11/12 21:58:27;;;;;;;30.50;23.33;;;7.80;99.90;;;;;;5002650;28;20172;-65
2021/11/12 22:00:55;;;;;;;30.35;23.42;;;7.80;99.90;;;;;;5020329;28;20468;-66
2021/11/12 22:03:23;;;;;;;33.33;24.35;;;7.90;99.90;;;;;;5019614;28;20038;-65
2021/11/12 22:05:49;;;;;;;27.70;21.42;;;7.90;99.90;;;;;;5008288;28;20431;-66
2021/11/12 22:08:15;;;;;;;30.75;22.58;;;8.00;99.90;;;;;;5021834;28;20051;-66
2021/11/12 22:10:41;;;;;;;27.40;21.35;;;8.00;99.90;;;;;;5022575;28;20042;-66
2021/11/12 22:13:08;;;;;;;28.15;22.42;;;8.00;99.90;;;;;;5005465;28;20105;-66
2021/11/12 22:15:34;;;;;;;28.33;20.50;;;8.00;99.90;;;;;;5026666;28;20418;-66
2021/11/12 22:18:00;;;;;;;27.70;21.27;;;8.10;99.90;;;;;;5006697;28;20058;-66
2021/11/12 22:20:26;;;;;;;26.00;19.98;;;8.10;99.90;;;;;;5023292;28;20269;-66
2021/11/12 22:22:52;;;;;;;28.20;21.45;;;8.10;99.90;;;;;;5025640;28;20488;-66
2021/11/12 22:25:18;;;;;;;28.05;21.13;;;8.20;99.90;;;;;;5015381;28;20051;-66
2021/11/12 22:27:44;;;;;;;26.10;20.00;;;8.20;99.90;;;;;;5025435;28;20065;-66
2021/11/12 22:30:12;;;;;;;29.40;20.05;;;8.30;99.90;;;;;;5018419;28;20037;-66
2021/11/12 22:32:38;;;;;;;25.80;20.15;;;8.30;99.90;;;;;;4987970;28;20046;-66
2021/11/12 22:35:05;;;;;;;27.15;19.42;;;8.30;99.90;;;;;;5016627;28;20088;-66
2021/11/12 22:37:31;;;;;;;28.60;21.33;;;8.20;99.90;;;;;;5028657;28;20048;-66
2021/11/12 22:39:57;;;;;;;26.52;20.65;;;8.30;99.90;;;;;;5018698;28;20054;-66
2021/11/12 22:42:23;;;;;;;26.85;19.85;;;8.30;99.90;;;;;;5023367;28;20091;-66
2021/11/12 22:44:49;;;;;;;24.67;20.20;;;8.30;99.90;;;;;;5021290;28;20136;-66
2021/11/12 22:47:15;;;;;;;31.48;20.23;;;8.30;99.90;;;;;;5025044;28;20093;-66
2021/11/12 22:49:41;;;;;;;24.50;19.38;;;8.30;99.90;;;;;;5018301;28;20041;-66
2021/11/12 22:52:06;;;;;;;25.92;19.15;;;8.30;99.90;;;;;;5025524;28;20393;-66
2021/11/12 22:54:32;;;;;;;24.88;20.08;;;8.30;99.90;;;;;;5027811;28;20052;-66
2021/11/12 22:56:58;;;;;;;25.73;19.38;;;8.40;99.90;;;;;;5017879;28;20049;-66
2021/11/12 22:59:24;;;;;;;27.60;20.20;;;8.40;99.90;;;;;;5021354;28;20122;-66